Airfield :
LOGIN :

Register | Disclaimer

   EN    FR    IT 

 










Legend :    VFR   Marginal VFR   IFR   Intensive IFR   Very Intensive IFR
Visi :
Ceiling :
>= 8 km
>= 3000ft
5 to 8 km
1000 to 3000 ft
1500m to 5 km
500 to 1000 ft
800 to 1500m
200 to 500 ft
< 800m
< 200 ft
Symbols :   Thunderstorms  Fog  Heavy snow  Heavy precipitations  Wind > 20 kt
SIGMETs :     Misc.  Thunderstorms  Icing  Turbulence  Mountain Waves  Volcanic Ashes






- Airport Elevation : 257 ft
- IATA code : MAN


EGCC - Manchester

CURRENT METAR :
  • 291920Z AUTO 21010KT 170V230 9999 -RA SCT013 BKN028 BKN047 14/12 Q1005

EXPIRED METARs :
  • 291850Z AUTO 19006KT 140V230 9999 BKN015 BKN032 14/12 Q1005 TEMPO RA
  • 291820Z AUTO 21008KT 180V240 9999 OVC015 14/12 Q1005 NOSIG
  • 291750Z AUTO 20009KT 170V240 9999 OVC020 14/12 Q1005
  • 291720Z AUTO 21010KT 9999 BKN025 OVC046 14/12 Q1005
  • 291650Z AUTO 22012G23KT 9999 BKN025 OVC041 14/12 Q1004

TAF TAF EGCC
Valid from the 29 at 18:00 until the 31 at 00:00 UTC


291704Z 2918/3024 22012KT 9999 BKN020
TEMPO 2918/3006 23015G25KT 8000 -RA
PROB30
TEMPO 2918/3006 4000 RA BKN009
BECMG 3006/3009 28010KT
PROB30
TEMPO 3006/3009 8000 -RA BKN012
BECMG 3016/3019 VRB03KT
BECMG 3019/3022 10010KT
TEMPO 3022/3024 6000 RA
PROB30
TEMPO 3022/3024 BKN014
ATIS : +44 161 499 2324



MET'MAP, your aeronautical weather chart ! - Copyright ORBIFLY December 2007 - Disclaimer

ORBIFLY MET'MAP TEAM :

Programming & Development : Alexandra Zaïnal
Concept & original design : Baudouin d'Aumeries
Assistance for programming : Marc-Olivier Méhu
Technical & hardware support : Manuel Goepfert

Contact : metmap@orbifly.com




SOURCES & CREDITS :

   NOAA